createdAt,value
2023-03-20T00:01:28.701Z,100.00
2023-03-20T00:03:55.626Z,100.00
2023-03-20T00:06:24.604Z,100.00
2023-03-20T00:08:53.277Z,100.00
2023-03-20T00:11:33.260Z,100.00
2023-03-20T00:14:03.224Z,100.00
2023-03-20T00:16:35.679Z,100.00
2023-03-20T00:19:03.613Z,100.00
2023-03-20T00:21:30.960Z,100.00
2023-03-20T00:23:57.759Z,100.00
2023-03-20T00:26:28.398Z,100.00
2023-03-20T00:28:54.986Z,100.00
2023-03-20T00:31:30.865Z,100.00
2023-03-20T00:34:00.587Z,100.00
2023-03-20T00:36:28.490Z,100.00
2023-03-20T00:38:57.989Z,100.00
2023-03-20T00:41:44.162Z,100.00
2023-03-20T00:44:27.807Z,100.00
2023-03-20T00:46:57.989Z,100.00
2023-03-20T00:49:30.934Z,100.00
2023-03-20T00:51:58.413Z,100.00
2023-03-20T00:54:25.503Z,100.00
2023-03-20T00:57:09.184Z,100.00
2023-03-20T00:59:47.631Z,100.00
2023-03-20T01:02:16.068Z,100.00
2023-03-20T01:04:42.951Z,100.00
2023-03-20T01:07:15.389Z,100.00
2023-03-20T01:09:42.457Z,100.00
2023-03-20T01:12:12.862Z,100.00
2023-03-20T01:14:39.615Z,100.00
2023-03-20T01:17:10.513Z,100.00
2023-03-20T01:19:38.279Z,100.00
2023-03-20T01:22:04.915Z,100.00
2023-03-20T01:24:31.562Z,100.00
2023-03-20T01:26:58.310Z,100.00
2023-03-20T01:29:30.594Z,100.00
2023-03-20T01:31:57.108Z,100.00
2023-03-20T01:34:23.793Z,100.00
2023-03-20T01:36:53.210Z,100.00
2023-03-20T01:39:21.998Z,100.00
2023-03-20T01:41:50.989Z,100.00
2023-03-20T01:44:28.430Z,100.00
2023-03-20T01:46:55.544Z,100.00
2023-03-20T01:49:22.211Z,100.00
2023-03-20T01:51:50.441Z,100.00
2023-03-20T01:54:31.954Z,100.00
2023-03-20T01:57:04.676Z,100.00
2023-03-20T01:59:39.316Z,100.00
2023-03-20T02:02:08.223Z,100.00
2023-03-20T02:04:38.869Z,100.00
2023-03-20T02:07:08.024Z,100.00
2023-03-20T02:09:34.651Z,100.00
2023-03-20T02:12:02.676Z,100.00
2023-03-20T02:14:31.648Z,100.00
2023-03-20T02:16:58.792Z,100.00
2023-03-20T02:19:56.454Z,100.00
2023-03-20T02:22:44.177Z,100.00
2023-03-20T02:25:32.671Z,100.00
2023-03-20T02:28:20.818Z,100.00
2023-03-20T02:31:06.069Z,100.00
2023-03-20T02:34:29.795Z,100.00
2023-03-20T02:37:17.884Z,100.00
2023-03-20T02:39:52.004Z,100.00
2023-03-20T02:42:33.714Z,100.00
2023-03-20T02:45:19.102Z,100.00
2023-03-20T02:48:04.391Z,100.00
2023-03-20T02:50:50.417Z,100.00
2023-03-20T02:53:27.472Z,100.00
2023-03-20T02:56:12.600Z,100.00
2023-03-20T02:58:47.585Z,100.00
2023-03-20T03:01:18.094Z,100.00
2023-03-20T03:03:54.701Z,100.00
2023-03-20T03:06:27.737Z,100.00
2023-03-20T03:09:18.876Z,100.00
2023-03-20T03:11:53.001Z,100.00
2023-03-20T03:14:50.672Z,100.00
2023-03-20T03:17:20.047Z,100.00
2023-03-20T03:19:51.014Z,100.00
2023-03-20T03:22:18.860Z,100.00
2023-03-20T03:24:52.235Z,100.00
2023-03-20T03:27:34.545Z,100.00
2023-03-20T03:30:21.814Z,100.00
2023-03-20T03:33:07.235Z,100.00
2023-03-20T03:35:34.562Z,100.00
2023-03-20T03:38:11.646Z,100.00
2023-03-20T03:41:04.448Z,100.00
2023-03-20T03:43:41.942Z,100.00
2023-03-20T03:46:24.639Z,100.00
2023-03-20T03:48:56.336Z,100.00
2023-03-20T03:51:28.112Z,100.00
2023-03-20T03:54:00.262Z,100.00
2023-03-20T03:56:31.233Z,100.00
2023-03-20T03:59:04.358Z,100.00
2023-03-20T04:01:36.671Z,100.00
2023-03-20T04:04:08.621Z,100.00
2023-03-20T04:06:35.459Z,100.00
2023-03-20T04:11:51.282Z,100.00
2023-03-20T04:14:23.446Z,100.00
2023-03-20T04:16:51.393Z,100.00
2023-03-20T04:19:25.667Z,100.00
2023-03-20T04:22:19.419Z,100.00
2023-03-20T04:24:46.321Z,100.00
2023-03-20T04:27:16.621Z,100.00
2023-03-20T04:29:48.290Z,100.00
2023-03-20T04:32:17.696Z,100.00
2023-03-20T04:34:44.302Z,100.00
2023-03-20T04:37:11.751Z,100.00
2023-03-20T04:39:38.531Z,100.00
2023-03-20T04:42:06.568Z,100.00
2023-03-20T04:44:34.338Z,100.00
2023-03-20T04:47:01.552Z,100.00
2023-03-20T04:49:28.967Z,100.00
2023-03-20T04:51:56.524Z,100.00
2023-03-20T04:54:23.330Z,100.00
2023-03-20T04:56:50.077Z,100.00
2023-03-20T04:59:17.309Z,100.00
2023-03-20T05:01:44.759Z,100.00
2023-03-20T05:04:11.614Z,100.00
2023-03-20T05:06:40.523Z,100.00
2023-03-20T05:09:08.917Z,100.00
2023-03-20T05:11:35.879Z,100.00
2023-03-20T05:14:02.827Z,100.00
2023-03-20T05:16:30.251Z,100.00
2023-03-20T05:18:57.073Z,100.00
2023-03-20T05:21:24.132Z,100.00
2023-03-20T05:23:51.434Z,100.00
2023-03-20T05:26:18.348Z,100.00
2023-03-20T05:28:45.287Z,100.00
2023-03-20T05:31:12.272Z,100.00
2023-03-20T05:33:39.963Z,100.00
2023-03-20T05:36:07.831Z,100.00
2023-03-20T05:38:34.667Z,100.00
2023-03-20T05:41:01.804Z,100.00
2023-03-20T05:43:32.124Z,95.26
2023-03-20T05:45:59.106Z,86.42
2023-03-20T05:48:25.919Z,81.80
2023-03-20T05:50:53.747Z,80.22
2023-03-20T05:53:20.564Z,86.33
2023-03-20T05:55:47.832Z,84.96
2023-03-20T05:58:14.714Z,77.88
2023-03-20T06:00:41.397Z,78.57
2023-03-20T06:03:08.447Z,86.15
2023-03-20T06:05:35.638Z,88.52
2023-03-20T06:08:03.481Z,91.05
2023-03-20T06:10:30.335Z,96.66
2023-03-20T06:13:01.043Z,94.41
2023-03-20T06:15:28.558Z,91.14
2023-03-20T06:17:56.289Z,90.24
2023-03-20T06:20:23.465Z,89.20
2023-03-20T06:22:50.372Z,94.96
2023-03-20T06:25:17.610Z,93.53
2023-03-20T06:27:46.685Z,90.52
2023-03-20T06:30:15.548Z,91.24
2023-03-20T06:32:42.963Z,89.92
2023-03-20T06:35:11.033Z,89.16
2023-03-20T06:37:38.070Z,90.72
2023-03-20T06:40:06.133Z,85.40
2023-03-20T06:42:32.991Z,84.23
2023-03-20T06:44:59.674Z,80.78
2023-03-20T06:47:26.485Z,79.03
2023-03-20T06:49:53.146Z,75.83
2023-03-20T06:52:22.799Z,73.12
2023-03-20T06:54:51.349Z,71.67
2023-03-20T06:57:18.386Z,70.73
2023-03-20T06:59:46.150Z,71.29
2023-03-20T07:02:12.917Z,68.14
2023-03-20T07:04:39.965Z,69.78
2023-03-20T07:07:07.078Z,66.17
2023-03-20T07:09:34.490Z,66.88
2023-03-20T07:12:02.484Z,65.23
2023-03-20T07:14:29.249Z,64.00
2023-03-20T07:16:56.687Z,63.61
2023-03-20T07:19:24.288Z,62.02
2023-03-20T07:21:57.016Z,62.74
2023-03-20T07:24:24.348Z,60.33
2023-03-20T07:26:51.670Z,59.04
2023-03-20T07:29:18.881Z,58.40
2023-03-20T07:31:46.082Z,56.50
2023-03-20T07:34:13.354Z,55.83
2023-03-20T07:36:42.057Z,55.55
2023-03-20T07:39:09.755Z,54.95
2023-03-20T07:41:37.032Z,54.94
2023-03-20T07:44:03.887Z,55.04
2023-03-20T07:46:30.797Z,54.70
2023-03-20T07:48:58.322Z,53.85
2023-03-20T07:51:26.762Z,53.35
2023-03-20T07:53:53.691Z,53.73
2023-03-20T07:56:21.326Z,54.50
2023-03-20T07:58:48.020Z,54.03
2023-03-20T08:01:15.527Z,53.37
2023-03-20T08:03:42.611Z,53.59
2023-03-20T08:06:10.114Z,53.77
2023-03-20T08:08:37.099Z,53.13
2023-03-20T08:11:04.502Z,53.25
2023-03-20T08:13:33.261Z,53.00
2023-03-20T08:15:59.894Z,53.87
2023-03-20T08:18:28.755Z,52.89
2023-03-20T08:20:55.538Z,53.69
2023-03-20T08:23:22.396Z,52.44
2023-03-20T08:25:50.238Z,53.08
2023-03-20T08:28:17.745Z,52.79
2023-03-20T08:30:45.056Z,52.07
2023-03-20T08:33:12.351Z,51.17
2023-03-20T08:35:39.303Z,50.59
2023-03-20T08:38:06.503Z,50.46
2023-03-20T08:40:33.419Z,49.16
2023-03-20T08:43:00.212Z,49.44
2023-03-20T08:45:27.226Z,49.29
2023-03-20T08:47:55.165Z,48.55
2023-03-20T08:50:22.024Z,47.72
2023-03-20T08:52:48.856Z,47.97
2023-03-20T08:55:16.875Z,48.99
2023-03-20T08:57:45.320Z,48.02
2023-03-20T09:00:14.626Z,47.16
2023-03-20T09:02:42.829Z,46.84
2023-03-20T09:05:11.117Z,46.98
2023-03-20T09:07:40.280Z,46.46
2023-03-20T09:10:08.236Z,45.95
2023-03-20T09:12:36.019Z,45.34
2023-03-20T09:15:03.810Z,44.88
2023-03-20T09:17:31.783Z,45.08
2023-03-20T09:19:58.753Z,45.28
2023-03-20T09:22:25.730Z,45.42
2023-03-20T09:24:52.526Z,44.85
2023-03-20T09:27:19.795Z,44.33
2023-03-20T09:29:46.500Z,43.80
2023-03-20T09:32:14.979Z,44.01
2023-03-20T09:34:42.138Z,43.53
2023-03-20T09:37:09.128Z,43.67
2023-03-20T09:39:36.013Z,43.45
2023-03-20T09:42:49.302Z,42.40
2023-03-20T09:45:42.071Z,41.53
2023-03-20T09:48:35.367Z,40.83
2023-03-20T09:51:33.129Z,40.83
2023-03-20T09:54:07.154Z,40.73
2023-03-20T09:56:34.159Z,40.96
2023-03-20T09:59:04.944Z,40.37
2023-03-20T10:01:39.846Z,39.85
2023-03-20T10:04:10.077Z,39.56
2023-03-20T10:06:37.400Z,38.80
2023-03-20T10:09:13.745Z,38.64
2023-03-20T10:11:40.580Z,38.34
2023-03-20T10:14:29.062Z,38.34
2023-03-20T10:17:07.938Z,37.48
2023-03-20T10:19:59.747Z,36.97
2023-03-20T10:22:29.387Z,37.12
2023-03-20T10:25:05.944Z,37.39
2023-03-20T10:28:13.689Z,36.24
2023-03-20T10:31:01.379Z,35.80
2023-03-20T10:33:37.066Z,35.50
2023-03-20T10:36:10.081Z,35.65
2023-03-20T10:38:48.972Z,35.67
2023-03-20T10:41:22.405Z,35.38
2023-03-20T10:43:52.961Z,35.83
2023-03-20T10:46:27.688Z,35.15
2023-03-20T10:49:01.051Z,34.86
2023-03-20T10:52:01.378Z,34.58
2023-03-20T10:54:34.510Z,34.54
2023-03-20T10:57:04.610Z,34.16
2023-03-20T10:59:41.640Z,33.82
2023-03-20T11:02:16.478Z,33.51
2023-03-20T11:04:44.811Z,34.48
2023-03-20T11:07:32.620Z,33.86
2023-03-20T11:10:14.328Z,33.19
2023-03-20T11:12:44.904Z,32.30
2023-03-20T11:15:26.402Z,32.18
2023-03-20T11:17:53.554Z,32.37
2023-03-20T11:20:23.531Z,31.14
2023-03-20T11:22:52.922Z,30.93
2023-03-20T11:25:32.866Z,31.28
2023-03-20T11:28:31.026Z,31.15
2023-03-20T11:31:04.807Z,30.95
2023-03-20T11:33:33.877Z,31.19
2023-03-20T11:36:02.145Z,30.65
2023-03-20T11:38:32.036Z,30.11
2023-03-20T11:40:59.063Z,29.84
2023-03-20T11:43:28.205Z,29.97
2023-03-20T11:46:01.049Z,30.93
2023-03-20T11:48:39.016Z,29.65
2023-03-20T11:51:09.850Z,29.04
2023-03-20T11:53:42.095Z,27.93
2023-03-20T11:56:21.117Z,27.70
2023-03-20T11:59:07.736Z,28.78
2023-03-20T12:01:44.785Z,27.78
2023-03-20T12:04:26.231Z,26.93
2023-03-20T12:07:12.794Z,26.20
2023-03-20T12:09:48.821Z,26.46
2023-03-20T12:12:35.339Z,27.53
2023-03-20T12:15:17.671Z,26.65
2023-03-20T12:17:44.650Z,26.68
2023-03-20T12:20:20.306Z,25.84
2023-03-20T12:23:00.736Z,25.59
2023-03-20T12:25:34.174Z,27.36
2023-03-20T12:28:23.212Z,25.50
2023-03-20T12:31:01.739Z,24.97
2023-03-20T12:34:06.749Z,24.70
2023-03-20T12:36:39.940Z,24.91
2023-03-20T12:39:14.488Z,25.27
2023-03-20T12:41:57.017Z,25.07
2023-03-20T12:44:51.258Z,24.95
2023-03-20T12:47:52.174Z,24.32
2023-03-20T12:50:40.998Z,24.18
2023-03-20T12:53:23.029Z,24.33
2023-03-20T12:56:01.954Z,24.93
2023-03-20T12:59:04.357Z,24.43
2023-03-20T13:01:32.497Z,23.46
2023-03-20T13:04:28.426Z,22.99
2023-03-20T13:07:01.880Z,22.10
2023-03-20T13:09:59.462Z,23.22
2023-03-20T13:12:51.621Z,23.37
2023-03-20T13:15:49.490Z,23.61
2023-03-20T13:18:34.320Z,23.90
2023-03-20T13:21:09.111Z,24.34
2023-03-20T13:23:51.496Z,23.54
2023-03-20T13:26:33.517Z,24.01
2023-03-20T13:29:13.722Z,22.88
2023-03-20T13:31:43.477Z,23.01
2023-03-20T13:34:33.515Z,23.02
2023-03-20T13:37:23.861Z,23.19
2023-03-20T13:40:06.228Z,22.37
2023-03-20T13:42:42.575Z,22.66
2023-03-20T13:45:25.870Z,22.52
2023-03-20T13:47:54.906Z,23.14
2023-03-20T13:50:38.816Z,22.85
2023-03-20T13:53:13.914Z,22.61
2023-03-20T13:56:27.328Z,22.24
2023-03-20T13:59:04.083Z,22.26
2023-03-20T14:01:36.926Z,22.07
2023-03-20T14:04:04.713Z,22.43
2023-03-20T14:06:31.676Z,21.43
2023-03-20T14:09:00.162Z,21.75
2023-03-20T14:11:35.679Z,21.90
2023-03-20T14:14:13.575Z,21.94
2023-03-20T14:16:41.745Z,22.37
2023-03-20T14:19:16.500Z,22.64
2023-03-20T14:21:53.272Z,22.51
2023-03-20T14:24:21.999Z,22.60
2023-03-20T14:27:17.891Z,22.22
2023-03-20T14:29:45.042Z,22.37
2023-03-20T14:32:11.580Z,22.07
2023-03-20T14:34:52.347Z,21.84
2023-03-20T14:37:31.508Z,21.55
2023-03-20T14:40:21.868Z,21.70
2023-03-20T14:42:58.416Z,21.51
2023-03-20T14:45:48.088Z,21.00
2023-03-20T14:48:27.895Z,21.96
2023-03-20T14:51:43.937Z,22.22
2023-03-20T14:54:25.432Z,22.65
2023-03-20T14:56:53.855Z,23.14
2023-03-20T14:59:23.188Z,22.56
2023-03-20T15:02:00.196Z,22.30
2023-03-20T15:04:32.972Z,21.99
2023-03-20T15:07:05.322Z,22.40
2023-03-20T15:09:37.561Z,22.37
2023-03-20T15:12:04.661Z,23.00
2023-03-20T15:14:56.909Z,22.82
2023-03-20T15:17:29.101Z,24.09
2023-03-20T15:20:16.980Z,22.76
2023-03-20T15:22:57.737Z,22.96
2023-03-20T15:25:33.365Z,23.48
2023-03-20T15:28:00.780Z,23.41
2023-03-20T15:30:38.283Z,23.27
2023-03-20T15:33:07.578Z,23.49
2023-03-20T15:35:34.670Z,24.25
2023-03-20T15:38:08.783Z,23.45
2023-03-20T15:40:50.724Z,23.62
2023-03-20T15:43:24.631Z,24.00
2023-03-20T15:46:14.338Z,23.63
2023-03-20T15:48:42.262Z,23.67
2023-03-20T15:51:11.795Z,23.22
2023-03-20T15:53:41.066Z,23.61
2023-03-20T15:56:18.294Z,23.88
2023-03-20T15:58:47.440Z,24.01
2023-03-20T16:01:19.508Z,23.92
2023-03-20T16:03:46.750Z,23.91
2023-03-20T16:06:18.506Z,24.20
2023-03-20T16:08:47.080Z,24.40
2023-03-20T16:11:17.699Z,24.73
2023-03-20T16:13:47.553Z,24.70
2023-03-20T16:16:24.914Z,24.97
2023-03-20T16:18:52.374Z,24.88
2023-03-20T16:21:23.004Z,25.18
2023-03-20T16:23:53.787Z,25.31
2023-03-20T16:26:23.353Z,25.66
2023-03-20T16:29:04.213Z,25.73
2023-03-20T16:31:36.868Z,25.99
2023-03-20T16:34:21.416Z,26.47
2023-03-20T16:37:01.915Z,26.86
2023-03-20T16:39:32.057Z,27.11
2023-03-20T16:42:26.483Z,27.52
2023-03-20T16:44:57.867Z,27.89
2023-03-20T16:47:34.764Z,28.61
2023-03-20T16:50:12.131Z,28.74
2023-03-20T16:52:43.681Z,28.93
2023-03-20T16:55:35.161Z,29.34
2023-03-20T16:58:06.648Z,29.22
2023-03-20T17:00:44.135Z,32.03
2023-03-20T17:03:20.084Z,31.50
2023-03-20T17:05:54.383Z,31.39
2023-03-20T17:08:36.115Z,31.68
2023-03-20T17:11:13.000Z,32.88
2023-03-20T17:13:41.320Z,32.17
2023-03-20T17:16:20.091Z,32.89
2023-03-20T17:18:48.048Z,33.22
2023-03-20T17:21:15.165Z,33.51
2023-03-20T17:23:43.684Z,33.73
2023-03-20T17:26:13.850Z,33.80
2023-03-20T17:28:41.896Z,34.53
2023-03-20T17:31:14.153Z,34.31
2023-03-20T17:33:41.707Z,34.39
2023-03-20T17:36:27.112Z,34.55
2023-03-20T17:38:59.039Z,34.71
2023-03-20T17:41:26.616Z,34.98
2023-03-20T17:43:54.091Z,34.83
2023-03-20T17:46:30.817Z,34.70
2023-03-20T17:49:14.081Z,35.38
2023-03-20T17:51:40.953Z,35.15
2023-03-20T17:54:07.739Z,34.99
2023-03-20T17:56:34.884Z,35.21
2023-03-20T17:59:03.597Z,35.21
2023-03-20T18:01:32.725Z,35.42
2023-03-20T18:03:59.552Z,36.56
2023-03-20T18:06:32.358Z,36.18
2023-03-20T18:09:01.619Z,36.46
2023-03-20T18:11:32.207Z,36.75
2023-03-20T18:14:02.162Z,37.20
2023-03-20T18:16:31.792Z,37.52
2023-03-20T18:19:01.655Z,37.69
2023-03-20T18:21:28.888Z,38.11
2023-03-20T18:23:55.986Z,38.50
2023-03-20T18:26:25.581Z,38.65
2023-03-20T18:28:56.213Z,38.33
2023-03-20T18:31:23.917Z,38.15
2023-03-20T18:33:53.545Z,38.30
2023-03-20T18:36:23.452Z,38.42
2023-03-20T18:38:52.693Z,38.29
2023-03-20T18:41:21.188Z,38.22
2023-03-20T18:43:52.652Z,38.73
2023-03-20T18:46:25.817Z,38.96
2023-03-20T18:48:57.695Z,39.50
2023-03-20T18:51:25.847Z,40.34
2023-03-20T18:53:53.012Z,40.41
2023-03-20T18:56:24.752Z,42.15
2023-03-20T18:58:52.874Z,42.58
2023-03-20T19:01:20.924Z,43.06
2023-03-20T19:03:48.869Z,43.71
2023-03-20T19:06:19.095Z,43.97
2023-03-20T19:08:47.083Z,44.80
2023-03-20T19:11:20.480Z,45.34
2023-03-20T19:13:51.792Z,46.34
2023-03-20T19:16:27.162Z,46.92
2023-03-20T19:18:55.684Z,47.42
2023-03-20T19:21:29.114Z,47.47
2023-03-20T19:23:59.720Z,47.67
2023-03-20T19:26:30.787Z,48.67
2023-03-20T19:29:01.174Z,48.30
2023-03-20T19:31:29.047Z,47.90
2023-03-20T19:33:58.544Z,48.24
2023-03-20T19:36:34.442Z,48.43
2023-03-20T19:39:04.100Z,48.21
2023-03-20T19:41:32.458Z,50.56
2023-03-20T19:44:01.498Z,50.18
2023-03-20T19:46:39.614Z,49.10
2023-03-20T19:49:30.140Z,50.90
2023-03-20T19:51:57.752Z,50.64
2023-03-20T19:54:24.561Z,51.20
2023-03-20T19:56:51.664Z,48.96
2023-03-20T19:59:18.472Z,48.83
2023-03-20T20:01:46.033Z,49.38
2023-03-20T20:04:13.767Z,48.90
2023-03-20T20:06:41.796Z,49.10
2023-03-20T20:09:09.187Z,51.37
2023-03-20T20:11:36.226Z,51.16
2023-03-20T20:14:08.679Z,50.46
2023-03-20T20:16:37.843Z,50.06
2023-03-20T20:19:05.060Z,50.09
2023-03-20T20:24:19.423Z,50.18
2023-03-20T20:27:03.079Z,50.08
2023-03-20T20:29:34.123Z,49.86
2023-03-20T20:32:01.110Z,50.78
2023-03-20T20:40:05.098Z,50.55
2023-03-20T20:42:31.785Z,50.82
2023-03-20T20:44:58.536Z,51.31
2023-03-20T20:47:25.445Z,51.12
2023-03-20T20:49:52.291Z,50.67
2023-03-20T20:52:19.091Z,50.49
2023-03-20T20:54:45.939Z,49.98
2023-03-20T20:57:13.432Z,49.84
2023-03-20T20:59:41.252Z,51.42
2023-03-20T21:02:12.338Z,52.55
2023-03-20T21:04:40.766Z,50.86
2023-03-20T21:07:11.559Z,49.90
2023-03-20T21:09:39.239Z,50.21
2023-03-20T21:12:07.597Z,50.31
2023-03-20T21:14:34.758Z,50.45
2023-03-20T21:17:01.762Z,50.31
2023-03-20T21:19:39.516Z,50.06
2023-03-20T21:22:08.298Z,51.15
2023-03-20T21:24:35.772Z,50.67
2023-03-20T21:27:14.594Z,50.78
2023-03-20T21:29:43.217Z,51.82
2023-03-20T21:32:14.801Z,51.84
2023-03-20T21:34:42.246Z,51.53
2023-03-20T21:38:18.482Z,53.01
2023-03-20T21:39:57.014Z,51.90
2023-03-20T21:42:24.022Z,53.05
2023-03-20T21:48:24.647Z,53.85
2023-03-20T21:50:51.208Z,54.46
2023-03-20T21:54:20.520Z,54.62
2023-03-20T21:56:40.109Z,56.17
2023-03-20T22:02:01.467Z,56.82
2023-03-20T22:05:16.383Z,56.97
2023-03-20T22:07:36.448Z,61.51
2023-03-20T22:10:37.649Z,60.40
2023-03-20T22:16:10.031Z,60.78
2023-03-20T22:19:08.629Z,61.19
2023-03-20T22:24:48.527Z,63.72
2023-03-20T22:30:12.394Z,63.88
2023-03-20T22:41:24.433Z,67.86
2023-03-20T22:46:22.680Z,68.38
2023-03-20T22:48:49.994Z,75.16
2023-03-20T22:51:18.373Z,71.17
2023-03-20T22:53:47.073Z,70.53
2023-03-20T22:56:14.026Z,78.51
2023-03-20T22:58:40.758Z,73.90
2023-03-20T23:01:09.559Z,68.81
2023-03-20T23:03:41.952Z,67.64
2023-03-20T23:06:22.021Z,66.49
2023-03-20T23:08:55.150Z,65.52
2023-03-20T23:11:24.971Z,66.10
2023-03-20T23:13:52.071Z,66.64
2023-03-20T23:16:18.930Z,67.42
2023-03-20T23:18:45.872Z,67.25
2023-03-20T23:21:12.473Z,67.38
2023-03-20T23:23:39.444Z,68.40
2023-03-20T23:26:06.316Z,68.72
2023-03-20T23:28:34.953Z,69.07
2023-03-20T23:31:16.389Z,69.83
2023-03-20T23:33:47.175Z,70.12
2023-03-20T23:36:28.899Z,69.88
2023-03-20T23:39:01.639Z,70.29
2023-03-20T23:41:49.593Z,70.29
2023-03-20T23:44:14.891Z,70.26
2023-03-20T23:46:41.447Z,71.10
2023-03-20T23:49:08.034Z,69.97
2023-03-20T23:51:34.686Z,69.51
2023-03-20T23:54:01.512Z,69.31
2023-03-20T23:56:28.564Z,70.32
2023-03-20T23:59:03.253Z,70.32
